Time;durP1;ratioP1;P1;durP2;ratioP2;P2;SDS_P1;SDS_P2;PMS_P1;PMS_P2;Temp;Humidity;BMP_temperature;BMP_pressure;BME280_temperature;BME280_humidity;BME280_pressure;Samples;Min_cycle;Max_cycle;Signal;HPM_P1;HPM_P2
2022/10/04 00:00:47;;;;;;;14.48;5.88;;;;;;;;;;5064741;28;20663;-65
2022/10/04 00:03:26;;;;;;;18.55;5.72;;;;;;;;;;5068417;28;20154;-65
2022/10/04 00:05:54;;;;;;;16.07;5.50;;;;;;;;;;5069059;28;20016;-66
2022/10/04 00:08:19;;;;;;;16.52;5.40;;;;;;;;;;5068870;28;20553;-68
2022/10/04 00:10:44;;;;;;;23.17;5.93;;;;;;;;;;5069260;28;20033;-66
2022/10/04 00:13:16;;;;;;;12.52;5.75;;;;;;;;;;5065476;28;20267;-68
2022/10/04 00:15:41;;;;;;;14.35;5.65;;;;;;;;;;5064083;28;20456;-65
2022/10/04 00:18:09;;;;;;;10.52;5.57;;;;;;;;;;5063876;28;20083;-65
2022/10/04 00:20:49;;;;;;;9.93;5.35;;;;;;;;;;5068101;28;20028;-66
2022/10/04 00:23:29;;;;;;;12.38;5.97;;;;;;;;;;5067754;28;20028;-70
2022/10/04 00:25:56;;;;;;;10.35;5.57;;;;;;;;;;5068275;28;20024;-69
2022/10/04 00:28:24;;;;;;;16.77;6.30;;;;;;;;;;5067690;28;20070;-65
2022/10/04 00:31:05;;;;;;;23.55;6.30;;;;;;;;;;5068582;28;20021;-67
2022/10/04 00:33:38;;;;;;;18.88;5.65;;;;;;;;;;5067663;28;20078;-65
2022/10/04 00:36:22;;;;;;;15.65;5.15;;;;;;;;;;5071395;28;20119;-68
2022/10/04 00:39:03;;;;;;;15.80;5.80;;;;;;;;;;5069654;28;20021;-68
2022/10/04 00:41:29;;;;;;;13.65;5.50;;;;;;;;;;5065636;28;20021;-65
2022/10/04 00:43:56;;;;;;;20.77;6.07;;;;;;;;;;5071952;28;20066;-66
2022/10/04 00:46:22;;;;;;;14.27;5.95;;;;;;;;;;5070754;28;20025;-66
2022/10/04 00:48:50;;;;;;;19.38;6.18;;;;;;;;;;5073351;28;20020;-66
2022/10/04 00:51:24;;;;;;;19.25;5.72;;;;;;;;;;5068384;28;20036;-66
2022/10/04 00:53:52;;;;;;;14.93;6.05;;;;;;;;;;5067494;28;20017;-67
2022/10/04 00:56:30;;;;;;;23.58;5.95;;;;;;;;;;5070668;28;20028;-67
2022/10/04 00:58:58;;;;;;;21.92;6.78;;;;;;;;;;5071433;28;20013;-68
2022/10/04 01:01:26;;;;;;;11.70;5.88;;;;;;;;;;5077487;28;20047;-66
2022/10/04 01:03:52;;;;;;;14.07;6.50;;;;;;;;;;5071788;28;20032;-66
2022/10/04 01:06:19;;;;;;;15.45;6.22;;;;;;;;;;5065743;28;20104;-67
2022/10/04 01:08:48;;;;;;;14.27;6.60;;;;;;;;;;5066423;28;20480;-66
2022/10/04 01:11:19;;;;;;;11.10;5.78;;;;;;;;;;5068705;28;20477;-66
2022/10/04 01:13:45;;;;;;;17.23;5.70;;;;;;;;;;5070840;28;20024;-66
2022/10/04 01:16:16;;;;;;;11.32;5.95;;;;;;;;;;5070858;28;20020;-66
2022/10/04 01:18:42;;;;;;;11.68;6.13;;;;;;;;;;5067711;28;20473;-66
2022/10/04 01:21:27;;;;;;;13.48;5.68;;;;;;;;;;5071241;28;20067;-66
2022/10/04 01:24:13;;;;;;;10.93;5.30;;;;;;;;;;5069169;28;20104;-67
2022/10/04 01:26:42;;;;;;;12.02;5.10;;;;;;;;;;5065296;28;20033;-66
2022/10/04 01:29:12;;;;;;;11.95;5.45;;;;;;;;;;5071937;28;20452;-66
2022/10/04 01:31:39;;;;;;;11.98;5.60;;;;;;;;;;5068875;28;20029;-66
2022/10/04 01:34:05;;;;;;;14.63;5.40;;;;;;;;;;5070354;28;20103;-66
2022/10/04 01:36:30;;;;;;;12.77;5.63;;;;;;;;;;5067796;28;20096;-66
2022/10/04 01:38:56;;;;;;;13.23;5.93;;;;;;;;;;5069965;28;20530;-66
2022/10/04 01:41:26;;;;;;;21.45;5.60;;;;;;;;;;5068051;28;20103;-66
2022/10/04 01:43:53;;;;;;;22.90;6.35;;;;;;;;;;5070385;28;20048;-66
2022/10/04 01:46:21;;;;;;;21.48;6.50;;;;;;;;;;5063586;28;20033;-67
2022/10/04 01:48:46;;;;;;;19.50;6.93;;;;;;;;;;5070225;28;20020;-66
2022/10/04 01:51:23;;;;;;;16.73;5.93;;;;;;;;;;5069429;28;20035;-66
2022/10/04 01:53:52;;;;;;;16.75;5.65;;;;;;;;;;5059247;28;20071;-65
2022/10/04 01:56:23;;;;;;;17.20;5.67;;;;;;;;;;5071693;28;20027;-67
2022/10/04 01:58:51;;;;;;;16.20;5.65;;;;;;;;;;5071703;28;20028;-65
2022/10/04 02:01:30;;;;;;;13.82;5.05;;;;;;;;;;5071193;28;20396;-65
2022/10/04 02:03:55;;;;;;;11.18;5.28;;;;;;;;;;5069368;28;20016;-65
2022/10/04 02:06:21;;;;;;;16.13;5.30;;;;;;;;;;5069219;28;20023;-66
2022/10/04 02:08:48;;;;;;;19.80;5.30;;;;;;;;;;5071370;28;20763;-68
2022/10/04 02:11:15;;;;;;;16.35;5.40;;;;;;;;;;5070615;28;20480;-65
2022/10/04 02:13:42;;;;;;;15.02;5.90;;;;;;;;;;5071397;28;20031;-67
2022/10/04 02:16:09;;;;;;;20.80;5.95;;;;;;;;;;5071621;28;20028;-64
2022/10/04 02:18:35;;;;;;;14.30;6.10;;;;;;;;;;5071664;28;20032;-68
2022/10/04 02:21:03;;;;;;;24.95;5.32;;;;;;;;;;5070602;28;20489;-65
2022/10/04 02:23:29;;;;;;;14.40;5.03;;;;;;;;;;5066499;28;20066;-66
2022/10/04 02:25:54;;;;;;;12.52;5.13;;;;;;;;;;5070586;28;20020;-66
2022/10/04 02:28:19;;;;;;;18.48;6.15;;;;;;;;;;5067879;28;20012;-66
2022/10/04 02:32:56;;;;;;;18.05;5.90;;;;;;;;;;5068898;28;20025;-68
2022/10/04 02:33:33;;;;;;;19.45;5.82;;;;;;;;;;5065682;28;20031;-70
2022/10/04 02:35:58;;;;;;;12.88;5.75;;;;;;;;;;5068931;28;20020;-68
2022/10/04 02:38:34;;;;;;;14.98;5.97;;;;;;;;;;5071372;28;20095;-65
2022/10/04 02:41:32;;;;;;;18.58;5.93;;;;;;;;;;5070460;28;20032;-65
2022/10/04 02:44:12;;;;;;;15.07;5.22;;;;;;;;;;5031527;28;20036;-68
2022/10/04 02:46:48;;;;;;;18.85;5.35;;;;;;;;;;5063844;28;20595;-66
2022/10/04 02:49:27;;;;;;;19.60;5.43;;;;;;;;;;5066918;28;20028;-69
2022/10/04 02:51:57;;;;;;;17.48;5.93;;;;;;;;;;5063777;28;20105;-65
2022/10/04 02:54:44;;;;;;;16.73;6.10;;;;;;;;;;5069109;28;20021;-65
2022/10/04 02:57:14;;;;;;;27.35;5.32;;;;;;;;;;5067231;28;20024;-65
2022/10/04 02:59:39;;;;;;;13.75;4.85;;;;;;;;;;5068778;28;20031;-65
2022/10/04 03:02:19;;;;;;;20.45;5.22;;;;;;;;;;5067341;28;20404;-66
2022/10/04 03:04:44;;;;;;;23.25;6.10;;;;;;;;;;5065781;28;20031;-68
2022/10/04 03:07:09;;;;;;;20.75;6.63;;;;;;;;;;5068343;28;20024;-65
2022/10/04 03:09:36;;;;;;;12.18;5.35;;;;;;;;;;5068985;28;20024;-67
2022/10/04 03:12:03;;;;;;;12.32;5.25;;;;;;;;;;5069241;28;20024;-67
2022/10/04 03:14:28;;;;;;;12.52;5.95;;;;;;;;;;5067993;28;20024;-67
2022/10/04 03:16:55;;;;;;;15.20;5.82;;;;;;;;;;5065694;28;20024;-67
2022/10/04 03:19:21;;;;;;;21.60;6.32;;;;;;;;;;5068869;28;20041;-67
2022/10/04 03:21:48;;;;;;;18.42;5.45;;;;;;;;;;5068519;28;20062;-67
2022/10/04 03:24:17;;;;;;;15.52;5.75;;;;;;;;;;5069212;28;20115;-67
2022/10/04 03:26:44;;;;;;;16.15;6.03;;;;;;;;;;5068604;28;20376;-67
2022/10/04 03:29:11;;;;;;;14.13;5.75;;;;;;;;;;5068364;28;20117;-67
2022/10/04 03:31:39;;;;;;;14.55;5.30;;;;;;;;;;5066322;28;20035;-67
2022/10/04 03:34:04;;;;;;;13.10;5.20;;;;;;;;;;5069084;28;20013;-67
2022/10/04 03:36:30;;;;;;;15.93;5.32;;;;;;;;;;5067544;28;20016;-67
2022/10/04 03:38:56;;;;;;;13.98;7.28;;;;;;;;;;5068863;28;20070;-67
2022/10/04 03:41:23;;;;;;;20.70;5.85;;;;;;;;;;5065895;28;20024;-67
2022/10/04 03:43:49;;;;;;;12.73;5.75;;;;;;;;;;5069317;28;20115;-67
2022/10/04 03:46:15;;;;;;;16.88;6.88;;;;;;;;;;5064458;28;20103;-67
2022/10/04 03:48:45;;;;;;;22.67;6.32;;;;;;;;;;5064588;28;20108;-67
2022/10/04 03:51:15;;;;;;;19.90;5.87;;;;;;;;;;5067039;28;20481;-67
2022/10/04 03:53:44;;;;;;;13.90;5.60;;;;;;;;;;5068796;28;20115;-67
2022/10/04 03:56:21;;;;;;;14.35;5.70;;;;;;;;;;5068489;28;20032;-67
2022/10/04 03:58:48;;;;;;;12.90;6.50;;;;;;;;;;5069487;28;20025;-67
2022/10/04 04:01:18;;;;;;;14.73;5.97;;;;;;;;;;5069501;28;20028;-67
2022/10/04 04:03:52;;;;;;;16.17;5.82;;;;;;;;;;5069217;28;20033;-67
2022/10/04 04:06:18;;;;;;;18.00;5.72;;;;;;;;;;5067599;28;20020;-67
2022/10/04 04:08:45;;;;;;;12.10;5.72;;;;;;;;;;5068218;28;20114;-67
2022/10/04 04:11:17;;;;;;;10.93;5.97;;;;;;;;;;5063760;28;20025;-67
2022/10/04 04:13:53;;;;;;;19.23;5.47;;;;;;;;;;5065133;28;20114;-68
2022/10/04 04:16:19;;;;;;;12.82;6.63;;;;;;;;;;5068724;28;20071;-68
2022/10/04 04:18:46;;;;;;;22.30;6.60;;;;;;;;;;5066701;28;20131;-68
2022/10/04 04:21:16;;;;;;;16.65;6.68;;;;;;;;;;5064266;28;20377;-66
2022/10/04 04:23:54;;;;;;;20.65;7.10;;;;;;;;;;5067562;28;20051;-65
2022/10/04 04:26:19;;;;;;;21.75;7.57;;;;;;;;;;5063541;28;20120;-65
2022/10/04 04:28:47;;;;;;;16.63;6.15;;;;;;;;;;5066993;28;20552;-69
2022/10/04 04:31:18;;;;;;;21.95;6.40;;;;;;;;;;5068198;28;20309;-68
2022/10/04 04:34:05;;;;;;;20.40;7.00;;;;;;;;;;5066790;28;20492;-65
2022/10/04 04:36:31;;;;;;;16.80;5.80;;;;;;;;;;5065165;28;20029;-65
2022/10/04 04:41:50;;;;;;;23.48;5.93;;;;;;;;;;5064098;28;20058;-65
2022/10/04 04:44:17;;;;;;;16.02;5.78;;;;;;;;;;5064944;28;20032;-65
2022/10/04 04:46:43;;;;;;;13.30;5.63;;;;;;;;;;5068223;28;20369;-65
2022/10/04 04:49:09;;;;;;;21.83;6.10;;;;;;;;;;5059801;28;20052;-68
2022/10/04 04:51:34;;;;;;;19.40;6.25;;;;;;;;;;5064657;28;20162;-67
2022/10/04 04:54:01;;;;;;;14.25;5.95;;;;;;;;;;5053001;28;20136;-65
2022/10/04 04:56:27;;;;;;;13.82;6.90;;;;;;;;;;5067578;28;20021;-66
2022/10/04 04:58:54;;;;;;;14.25;6.13;;;;;;;;;;5065924;28;20012;-67
2022/10/04 05:01:35;;;;;;;14.98;6.45;;;;;;;;;;5067618;28;20111;-66
2022/10/04 05:04:02;;;;;;;15.20;6.10;;;;;;;;;;5066110;28;20116;-66
2022/10/04 05:06:29;;;;;;;19.13;6.13;;;;;;;;;;5066616;28;20031;-66
2022/10/04 05:08:54;;;;;;;16.27;5.63;;;;;;;;;;5066735;28;20023;-67
2022/10/04 05:11:21;;;;;;;20.57;6.07;;;;;;;;;;5068406;28;20020;-65
2022/10/04 05:13:49;;;;;;;21.30;6.50;;;;;;;;;;5066323;28;20282;-69
2022/10/04 05:16:18;;;;;;;13.43;6.40;;;;;;;;;;5064951;28;21405;-67
2022/10/04 05:18:44;;;;;;;17.50;7.03;;;;;;;;;;5065092;28;20021;-64
2022/10/04 05:21:22;;;;;;;16.73;7.00;;;;;;;;;;5071018;28;20082;-65
2022/10/04 05:23:47;;;;;;;14.73;6.25;;;;;;;;;;5068854;28;20020;-65
2022/10/04 05:26:13;;;;;;;18.17;5.75;;;;;;;;;;5071083;28;20025;-68
2022/10/04 05:28:38;;;;;;;11.50;6.45;;;;;;;;;;5065462;28;20032;-65
2022/10/04 05:31:22;;;;;;;15.63;6.28;;;;;;;;;;5068598;28;20063;-68
2022/10/04 05:33:52;;;;;;;15.65;5.50;;;;;;;;;;5063447;28;20090;-65
2022/10/04 05:36:36;;;;;;;13.77;6.32;;;;;;;;;;5067878;28;20024;-65
2022/10/04 05:39:22;;;;;;;16.20;6.07;;;;;;;;;;5068802;28;20032;-66
2022/10/04 05:41:53;;;;;;;13.65;6.00;;;;;;;;;;5069445;28;20089;-66
2022/10/04 05:44:27;;;;;;;15.93;6.65;;;;;;;;;;5068766;28;20020;-66
2022/10/04 05:46:53;;;;;;;15.45;6.30;;;;;;;;;;5064094;28;20013;-65
2022/10/04 05:49:19;;;;;;;18.73;6.18;;;;;;;;;;5065061;28;20487;-66
2022/10/04 05:51:49;;;;;;;12.77;6.35;;;;;;;;;;5069167;28;20385;-67
2022/10/04 05:54:18;;;;;;;11.82;5.85;;;;;;;;;;5065537;28;20016;-69
2022/10/04 05:56:49;;;;;;;13.18;6.05;;;;;;;;;;5071179;28;20639;-65
2022/10/04 05:59:17;;;;;;;10.52;6.30;;;;;;;;;;5070275;28;20436;-69
2022/10/04 06:01:52;;;;;;;16.95;6.63;;;;;;;;;;5069732;28;20518;-66
2022/10/04 06:04:36;;;;;;;25.50;7.15;;;;;;;;;;5070770;28;20039;-69
2022/10/04 06:07:10;;;;;;;13.02;5.95;;;;;;;;;;5066448;28;20380;-66
2022/10/04 06:09:56;;;;;;;18.15;7.28;;;;;;;;;;5069761;28;20027;-66
2022/10/04 06:12:29;;;;;;;12.60;6.35;;;;;;;;;;5028969;28;20036;-68
2022/10/04 06:14:57;;;;;;;15.88;7.75;;;;;;;;;;5069072;28;20020;-67
2022/10/04 06:17:41;;;;;;;22.73;7.15;;;;;;;;;;5067624;28;20036;-69
2022/10/04 06:20:12;;;;;;;17.17;6.78;;;;;;;;;;5062812;28;20496;-70
2022/10/04 06:22:47;;;;;;;17.23;7.07;;;;;;;;;;5067472;28;20050;-66
2022/10/04 06:25:26;;;;;;;22.40;8.55;;;;;;;;;;5066276;28;20024;-65
2022/10/04 06:28:10;;;;;;;13.73;5.93;;;;;;;;;;5068946;28;20023;-67
2022/10/04 06:31:06;;;;;;;17.30;7.25;;;;;;;;;;5068871;28;20032;-70
2022/10/04 06:33:49;;;;;;;13.55;7.28;;;;;;;;;;5063932;28;20395;-66
2022/10/04 06:36:28;;;;;;;23.98;6.90;;;;;;;;;;5063186;28;20020;-65
2022/10/04 06:38:59;;;;;;;19.65;6.60;;;;;;;;;;5064186;28;20021;-69
2022/10/04 06:41:29;;;;;;;16.42;6.47;;;;;;;;;;5062752;28;20436;-66
2022/10/04 06:44:14;;;;;;;14.50;6.72;;;;;;;;;;5063210;28;20465;-67
2022/10/04 06:46:48;;;;;;;16.67;6.22;;;;;;;;;;5061573;28;20035;-66
2022/10/04 06:49:39;;;;;;;12.02;6.13;;;;;;;;;;5068228;28;20020;-65
2022/10/04 06:52:16;;;;;;;15.75;6.47;;;;;;;;;;5064189;28;20028;-68
2022/10/04 06:54:53;;;;;;;20.40;7.53;;;;;;;;;;5063090;28;20477;-65
2022/10/04 06:57:30;;;;;;;13.40;6.38;;;;;;;;;;5067527;28;20016;-66
2022/10/04 07:00:14;;;;;;;16.00;4.75;;;;;;;;;;5066241;28;20024;-65
2022/10/04 07:02:48;;;;;;;16.65;5.63;;;;;;;;;;5067559;28;20021;-68
2022/10/04 07:05:13;;;;;;;11.88;6.05;;;;;;;;;;5067539;28;20104;-69
2022/10/04 07:07:43;;;;;;;11.60;4.80;;;;;;;;;;5068417;28;20095;-68
2022/10/04 07:10:08;;;;;;;;;;;;;;;;;;5064961;28;20131;-65
2022/10/04 07:12:37;;;;;;;17.65;5.90;;;;;;;;;;5067896;28;20022;-65
2022/10/04 07:15:03;;;;;;;11.55;5.15;;;;;;;;;;5068696;28;20127;-68
2022/10/04 07:17:31;;;;;;;11.10;5.30;;;;;;;;;;5065353;28;20538;-66
2022/10/04 07:19:57;;;;;;;12.77;5.00;;;;;;;;;;5066020;28;20060;-71
2022/10/04 07:22:29;;;;;;;13.68;5.55;;;;;;;;;;5059759;28;20020;-69
2022/10/04 07:24:58;;;;;;;15.40;5.25;;;;;;;;;;5068685;28;20028;-70
2022/10/04 07:27:43;;;;;;;14.73;5.28;;;;;;;;;;5062386;28;20028;-68
2022/10/04 07:30:13;;;;;;;10.93;5.72;;;;;;;;;;5045280;28;20036;-65
2022/10/04 07:32:38;;;;;;;;;;;;;;;;;;5064756;28;20287;-65
2022/10/04 07:35:13;;;;;;;17.33;6.50;;;;;;;;;;5065140;28;19916;-66
2022/10/04 07:37:51;;;;;;;13.52;6.50;;;;;;;;;;5069338;28;20017;-66
2022/10/04 07:40:26;;;;;;;17.20;5.35;;;;;;;;;;5067253;28;20031;-65
2022/10/04 07:42:53;;;;;;;12.18;4.60;;;;;;;;;;5069118;28;20419;-65
2022/10/04 07:45:24;;;;;;;15.57;5.40;;;;;;;;;;5065708;28;20009;-65
2022/10/04 07:47:49;;;;;;;8.60;4.88;;;;;;;;;;5066865;28;20052;-68
2022/10/04 07:50:22;;;;;;;13.18;5.93;;;;;;;;;;5068165;28;20062;-69
2022/10/04 07:53:16;;;;;;;13.68;5.32;;;;;;;;;;5065525;28;20024;-65
2022/10/04 07:55:53;;;;;;;18.38;5.90;;;;;;;;;;5055543;28;20032;-66
2022/10/04 07:58:43;;;;;;;15.75;5.13;;;;;;;;;;5065154;28;20067;-66
2022/10/04 08:01:08;;;;;;;10.25;5.53;;;;;;;;;;5067019;28;20550;-66
2022/10/04 08:03:44;;;;;;;11.48;5.18;;;;;;;;;;5066704;28;20516;-65
2022/10/04 08:06:15;;;;;;;15.60;5.00;;;;;;;;;;5068509;28;20397;-65
2022/10/04 08:08:46;;;;;;;16.23;5.95;;;;;;;;;;5068641;28;20028;-68
2022/10/04 08:11:31;;;;;;;19.42;6.38;;;;;;;;;;5066643;28;20020;-65
2022/10/04 08:13:57;;;;;;;12.55;4.82;;;;;;;;;;5066924;28;20111;-66
2022/10/04 08:16:36;;;;;;;17.40;6.38;;;;;;;;;;5069168;28;20104;-65
2022/10/04 08:19:11;;;;;;;15.48;4.72;;;;;;;;;;5069133;28;20473;-66
2022/10/04 08:21:45;;;;;;;11.65;4.80;;;;;;;;;;5067470;28;20040;-69
2022/10/04 08:24:13;;;;;;;9.82;4.82;;;;;;;;;;5066236;28;20031;-65
2022/10/04 08:26:43;;;;;;;9.80;4.30;;;;;;;;;;5068145;28;20388;-65
2022/10/04 08:29:42;;;;;;;4.03;2.25;;;;;;;;;;5068964;28;20140;-65
2022/10/04 08:32:21;;;;;;;10.27;4.20;;;;;;;;;;5068124;28;20023;-68
2022/10/04 08:34:50;;;;;;;5.50;2.83;;;;;;;;;;5063446;28;20019;-65
2022/10/04 08:37:15;;;;;;;16.50;4.50;;;;;;;;;;5067132;28;20023;-69
2022/10/04 08:39:53;;;;;;;15.80;5.35;;;;;;;;;;5066741;28;20440;-65
2022/10/04 08:42:27;;;;;;;10.32;4.65;;;;;;;;;;5080712;28;20021;-67
2022/10/04 08:44:55;;;;;;;7.72;4.47;;;;;;;;;;5068497;28;20025;-66
2022/10/04 08:47:39;;;;;;;13.70;5.00;;;;;;;;;;5069573;28;20025;-66
2022/10/04 08:50:08;;;;;;;13.85;3.83;;;;;;;;;;5064882;28;20103;-67
2022/10/04 08:52:36;;;;;;;8.02;3.60;;;;;;;;;;5065902;28;20103;-67
2022/10/04 08:55:13;;;;;;;17.13;5.68;;;;;;;;;;5070009;28;20075;-68
2022/10/04 08:57:47;;;;;;;11.07;4.47;;;;;;;;;;5069603;28;20487;-66
2022/10/04 09:00:19;;;;;;;9.13;3.80;;;;;;;;;;5069919;28;20020;-65
2022/10/04 09:02:47;;;;;;;5.70;2.45;;;;;;;;;;5070811;28;20070;-66
2022/10/04 09:05:31;;;;;;;7.45;3.58;;;;;;;;;;5071809;28;20016;-67
2022/10/04 09:08:05;;;;;;;11.02;4.43;;;;;;;;;;5072082;28;20021;-69
2022/10/04 09:10:51;;;;;;;13.77;3.92;;;;;;;;;;5071001;28;20024;-65
2022/10/04 09:13:31;;;;;;;9.20;3.47;;;;;;;;;;5062088;28;20489;-65
2022/10/04 09:16:15;;;;;;;8.38;3.80;;;;;;;;;;5068753;28;20024;-69
2022/10/04 09:18:50;;;;;;;11.02;3.78;;;;;;;;;;5068860;28;20020;-65
2022/10/04 09:21:22;;;;;;;13.48;3.30;;;;;;;;;;5069499;28;20025;-71
2022/10/04 09:23:50;;;;;;;9.13;3.03;;;;;;;;;;5063017;28;20067;-66
2022/10/04 09:26:20;;;;;;;7.55;2.53;;;;;;;;;;5070876;28;20046;-68
2022/10/04 09:28:54;;;;;;;11.60;2.47;;;;;;;;;;5072076;28;20119;-69
2022/10/04 09:31:28;;;;;;;5.28;2.67;;;;;;;;;;5068665;28;20044;-68
2022/10/04 09:34:21;;;;;;;9.70;3.53;;;;;;;;;;5072068;28;20016;-69
2022/10/04 09:36:58;;;;;;;10.68;2.38;;;;;;;;;;5066811;28;20073;-66
2022/10/04 09:39:35;;;;;;;13.57;3.83;;;;;;;;;;5070622;28;20009;-66
2022/10/04 09:42:24;;;;;;;7.47;2.92;;;;;;;;;;5070745;28;20021;-66
2022/10/04 09:45:05;;;;;;;14.13;3.50;;;;;;;;;;5047566;28;20105;-71
2022/10/04 09:47:40;;;;;;;5.75;2.35;;;;;;;;;;5064364;28;20386;-67
2022/10/04 09:50:12;;;;;;;10.05;3.55;;;;;;;;;;5070120;28;20465;-69
2022/10/04 09:52:46;;;;;;;6.45;2.28;;;;;;;;;;5070076;28;20668;-66
2022/10/04 09:55:23;;;;;;;6.93;2.58;;;;;;;;;;5068932;28;20035;-69
2022/10/04 09:57:57;;;;;;;10.85;3.25;;;;;;;;;;5069115;28;20019;-66
2022/10/04 10:00:25;;;;;;;6.68;3.30;;;;;;;;;;5066531;28;20009;-67
2022/10/04 10:02:55;;;;;;;8.32;2.85;;;;;;;;;;5070510;28;20024;-68
2022/10/04 10:05:39;;;;;;;6.20;2.25;;;;;;;;;;5068839;28;20017;-71
2022/10/04 10:08:10;;;;;;;7.72;2.60;;;;;;;;;;5070234;28;20176;-66
2022/10/04 10:16:52;;;;;;;7.40;2.58;;;;;;;;;;5044794;28;19932;-92
2022/10/04 10:22:42;;;;;;;3.60;1.88;;;;;;;;;;5001432;28;20026;-90
2022/10/04 10:25:17;;;;;;;10.90;3.25;;;;;;;;;;4997806;28;20015;-93
2022/10/04 10:27:57;;;;;;;6.20;2.42;;;;;;;;;;5010170;28;20045;-92
2022/10/04 10:31:04;;;;;;;8.02;3.67;;;;;;;;;;5028608;28;20018;-88
2022/10/04 10:33:47;;;;;;;14.15;2.90;;;;;;;;;;4955428;28;20023;-92
2022/10/04 10:36:30;;;;;;;6.78;1.98;;;;;;;;;;5022027;28;20501;-90
2022/10/04 10:39:21;;;;;;;12.27;2.40;;;;;;;;;;5005086;28;20383;-89
2022/10/04 10:41:50;;;;;;;;;;;;;;;;;;5008532;28;20026;-90
2022/10/04 10:44:22;;;;;;;5.15;2.60;;;;;;;;;;5001321;28;19913;-91
2022/10/04 10:46:53;;;;;;;5.93;2.95;;;;;;;;;;5004682;28;20029;-92
2022/10/04 10:49:28;;;;;;;5.80;2.42;;;;;;;;;;5004210;28;20018;-88
2022/10/04 10:52:21;;;;;;;2.95;1.38;;;;;;;;;;5003631;28;20053;-89
2022/10/04 10:55:06;;;;;;;2.88;1.60;;;;;;;;;;5003221;28;20021;-90
2022/10/04 10:57:52;;;;;;;5.78;2.65;;;;;;;;;;5008953;28;20025;-91
2022/10/04 11:00:19;;;;;;;5.57;1.77;;;;;;;;;;5009777;28;20485;-89
2022/10/04 11:03:11;;;;;;;10.30;2.45;;;;;;;;;;5003535;28;20065;-90
2022/10/04 11:05:57;;;;;;;11.63;2.35;;;;;;;;;;5029126;22;20077;-67
2022/10/04 11:08:31;;;;;;;12.05;2.75;;;;;;;;;;5042971;28;20030;-68
2022/10/04 11:11:00;;;;;;;5.85;2.17;;;;;;;;;;5038348;28;20070;-68
2022/10/04 11:13:25;;;;;;;14.88;1.73;;;;;;;;;;5055573;22;20128;-69
2022/10/04 11:16:09;;;;;;;7.80;2.38;;;;;;;;;;5057592;28;20162;-69
2022/10/04 11:19:00;;;;;;;6.10;3.08;;;;;;;;;;5061892;28;20039;-70
2022/10/04 11:21:37;;;;;;;6.20;2.45;;;;;;;;;;5043187;28;20044;-70
2022/10/04 11:24:21;;;;;;;3.95;1.98;;;;;;;;;;5045094;28;20088;-70
2022/10/04 11:26:52;;;;;;;4.25;2.05;;;;;;;;;;5034630;28;20072;-70
2022/10/04 11:29:25;;;;;;;3.75;1.60;;;;;;;;;;5046106;28;20489;-68
2022/10/04 11:32:08;;;;;;;11.25;2.95;;;;;;;;;;5040197;28;20044;-70
2022/10/04 11:34:59;;;;;;;5.97;2.40;;;;;;;;;;5044127;28;20293;-68
2022/10/04 11:37:28;;;;;;;5.85;2.60;;;;;;;;;;5031552;28;20024;-69
2022/10/04 11:40:00;;;;;;;6.68;2.50;;;;;;;;;;5039991;28;20024;-70
2022/10/04 11:42:37;;;;;;;10.00;2.75;;;;;;;;;;5047195;28;20025;-69
2022/10/04 11:45:16;;;;;;;7.43;2.70;;;;;;;;;;5023650;28;20029;-66
2022/10/04 11:47:44;;;;;;;4.97;2.60;;;;;;;;;;5042154;28;20036;-69
2022/10/04 11:50:32;;;;;;;7.93;2.80;;;;;;;;;;5046056;28;20044;-69
2022/10/04 11:53:06;;;;;;;8.45;2.90;;;;;;;;;;5046803;28;20493;-70
2022/10/04 11:55:52;;;;;;;8.68;2.88;;;;;;;;;;5044815;28;20024;-70
2022/10/04 11:58:36;;;;;;;6.18;2.42;;;;;;;;;;5043467;28;20017;-69
2022/10/04 12:01:21;;;;;;;8.55;2.15;;;;;;;;;;5042551;28;20131;-70
2022/10/04 12:04:12;;;;;;;6.60;2.92;;;;;;;;;;5043187;28;20027;-67
2022/10/04 12:06:43;;;;;;;15.07;2.17;;;;;;;;;;5047820;28;20477;-70
2022/10/04 12:09:30;;;;;;;3.50;1.25;;;;;;;;;;5043976;28;20055;-67
2022/10/04 12:15:06;;;;;;;6.43;2.45;;;;;;;;;;5044262;28;20036;-69
2022/10/04 12:17:47;;;;;;;4.22;2.53;;;;;;;;;;5048177;28;20062;-70
2022/10/04 12:20:31;;;;;;;8.00;1.90;;;;;;;;;;5043090;28;20573;-70
2022/10/04 12:23:15;;;;;;;4.30;1.73;;;;;;;;;;5045606;28;20027;-70
2022/10/04 12:25:45;;;;;;;6.57;2.17;;;;;;;;;;5039904;28;20040;-70
2022/10/04 12:28:28;;;;;;;6.53;1.95;;;;;;;;;;5045312;28;20458;-69
2022/10/04 12:31:00;;;;;;;11.55;3.28;;;;;;;;;;5050541;28;20128;-70
2022/10/04 12:33:33;;;;;;;4.93;1.58;;;;;;;;;;5042204;28;20032;-70
2022/10/04 12:36:04;;;;;;;7.25;2.42;;;;;;;;;;5049502;28;20025;-69
2022/10/04 12:38:41;;;;;;;9.75;2.80;;;;;;;;;;5049136;28;20112;-68
2022/10/04 12:41:15;;;;;;;7.35;2.60;;;;;;;;;;5049047;28;20021;-68
2022/10/04 12:43:48;;;;;;;12.63;2.22;;;;;;;;;;5026685;28;20100;-70
2022/10/04 12:46:20;;;;;;;6.40;1.90;;;;;;;;;;5041208;28;20024;-68
2022/10/04 12:49:00;;;;;;;4.28;1.77;;;;;;;;;;5050158;28;20070;-70
2022/10/04 12:51:31;;;;;;;5.13;1.90;;;;;;;;;;5042131;28;20036;-70
2022/10/04 12:54:15;;;;;;;6.15;2.80;;;;;;;;;;5048441;28;20021;-70
2022/10/04 12:57:09;;;;;;;5.50;2.70;;;;;;;;;;5049796;28;20071;-70
2022/10/04 12:59:37;;;;;;;5.10;1.23;;;;;;;;;;4995639;28;20087;-70
2022/10/04 13:02:08;;;;;;;9.65;2.58;;;;;;;;;;5042399;28;20539;-70
2022/10/04 13:04:37;;;;;;;6.45;2.53;;;;;;;;;;5049520;28;20032;-69
2022/10/04 13:07:25;;;;;;;8.95;2.47;;;;;;;;;;5043082;28;20017;-69
2022/10/04 13:09:56;;;;;;;6.85;2.50;;;;;;;;;;5048807;28;20087;-70
2022/10/04 13:12:33;;;;;;;7.10;2.40;;;;;;;;;;5049613;28;20111;-70
2022/10/04 13:15:18;;;;;;;8.18;2.20;;;;;;;;;;5046755;28;20366;-70
2022/10/04 13:18:02;;;;;;;5.45;2.22;;;;;;;;;;5025961;28;20072;-68
2022/10/04 13:20:46;;;;;;;6.97;2.42;;;;;;;;;;5050534;28;20028;-68
2022/10/04 13:23:20;;;;;;;1.90;1.27;;;;;;;;;;5042324;28;20020;-69
2022/10/04 13:26:06;;;;;;;7.80;2.28;;;;;;;;;;5049648;28;20112;-68
2022/10/04 13:28:43;;;;;;;4.18;2.03;;;;;;;;;;5051938;28;20369;-69
2022/10/04 13:31:14;;;;;;;6.30;2.58;;;;;;;;;;5046192;28;20021;-70
2022/10/04 13:33:52;;;;;;;7.25;2.13;;;;;;;;;;5044285;28;20634;-68
2022/10/04 13:36:22;;;;;;;5.43;2.50;;;;;;;;;;5045345;28;20393;-70
2022/10/04 13:38:57;;;;;;;5.15;2.42;;;;;;;;;;5049605;28;20183;-70
2022/10/04 13:41:40;;;;;;;8.55;2.20;;;;;;;;;;5044307;28;20021;-69
2022/10/04 13:44:11;;;;;;;8.02;2.35;;;;;;;;;;5047211;28;20040;-70
2022/10/04 13:46:55;;;;;;;9.38;2.90;;;;;;;;;;5040430;28;20465;-69
2022/10/04 13:49:28;;;;;;;8.88;2.78;;;;;;;;;;5044609;28;20023;-68
2022/10/04 13:56:35;;;;;;;3.33;2.00;;;;;;;;;;5049737;28;20029;-70
2022/10/04 13:57:45;;;;;;;6.55;2.22;;;;;;;;;;5041066;28;20024;-67
2022/10/04 14:00:13;;;;;;;9.13;2.35;;;;;;;;;;5045991;28;20047;-68
2022/10/04 14:02:57;;;;;;;5.72;2.67;;;;;;;;;;5035547;28;20053;-68
2022/10/04 14:05:41;;;;;;;3.67;1.90;;;;;;;;;;5040357;28;20124;-67
2022/10/04 14:08:25;;;;;;;7.57;2.17;;;;;;;;;;5049578;28;20358;-67
2022/10/04 14:11:09;;;;;;;4.60;2.55;;;;;;;;;;5046739;28;20066;-67
2022/10/04 14:13:43;;;;;;;8.60;2.50;;;;;;;;;;5038421;28;20091;-68
2022/10/04 14:16:14;;;;;;;8.68;2.90;;;;;;;;;;5045409;28;20115;-68
2022/10/04 14:18:54;;;;;;;7.45;3.05;;;;;;;;;;5049738;28;20013;-67
2022/10/04 14:21:38;;;;;;;7.18;1.73;;;;;;;;;;5047647;28;20432;-67
2022/10/04 14:24:32;;;;;;;7.75;2.75;;;;;;;;;;5048693;28;20033;-67
2022/10/04 14:27:16;;;;;;;5.40;1.85;;;;;;;;;;5015434;28;20041;-69
2022/10/04 14:29:42;;;;;;;4.47;1.50;;;;;;;;;;5049320;28;20016;-68
2022/10/04 14:32:13;;;;;;;3.90;1.90;;;;;;;;;;5047055;28;20040;-68
2022/10/04 14:34:58;;;;;;;4.43;1.98;;;;;;;;;;5044773;28;20024;-67
2022/10/04 14:37:43;;;;;;;6.90;2.67;;;;;;;;;;5042596;28;20236;-67
2022/10/04 14:40:11;;;;;;;7.47;2.30;;;;;;;;;;5044696;28;20021;-68
2022/10/04 14:42:39;;;;;;;8.50;2.22;;;;;;;;;;5042346;28;20432;-67
2022/10/04 14:45:04;;;;;;;5.78;2.47;;;;;;;;;;5040670;28;20397;-68
2022/10/04 14:47:29;;;;;;;1.48;0.90;;;;;;;;;;5048606;28;20017;-67
2022/10/04 14:50:13;;;;;;;5.27;1.67;;;;;;;;;;5042208;28;20451;-68
2022/10/04 14:53:02;;;;;;;6.30;2.38;;;;;;;;;;5042393;28;20287;-68
2022/10/04 14:55:29;;;;;;;13.35;2.92;;;;;;;;;;5037045;28;20103;-67
2022/10/04 14:57:54;;;;;;;5.63;2.13;;;;;;;;;;5042505;28;20352;-67
2022/10/04 15:00:28;;;;;;;5.07;1.90;;;;;;;;;;5047688;28;20020;-67
2022/10/04 15:02:53;;;;;;;7.57;2.63;;;;;;;;;;5040859;28;20028;-67
2022/10/04 15:05:39;;;;;;;7.85;2.50;;;;;;;;;;5045021;28;20017;-68
2022/10/04 15:08:23;;;;;;;7.30;2.72;;;;;;;;;;5033047;28;20370;-67
2022/10/04 15:11:05;;;;;;;7.55;2.30;;;;;;;;;;5040475;28;20017;-67
2022/10/04 15:13:33;;;;;;;8.75;2.60;;;;;;;;;;5049545;28;20473;-67
2022/10/04 15:16:05;;;;;;;5.70;2.33;;;;;;;;;;5042128;28;20076;-67
2022/10/04 15:18:44;;;;;;;5.95;1.80;;;;;;;;;;5031778;28;20017;-68
2022/10/04 15:21:18;;;;;;;12.25;2.97;;;;;;;;;;5044500;28;20485;-68
2022/10/04 15:23:55;;;;;;;4.00;1.92;;;;;;;;;;5047651;28;20377;-67
2022/10/04 15:26:20;;;;;;;4.03;1.80;;;;;;;;;;5037639;28;20029;-68
2022/10/04 15:28:45;;;;;;;4.88;2.05;;;;;;;;;;5039732;28;20366;-67
2022/10/04 15:31:21;;;;;;;4.38;1.98;;;;;;;;;;5044423;28;20033;-67
2022/10/04 15:33:59;;;;;;;9.32;2.35;;;;;;;;;;5048965;28;20032;-67